• Join FlightAware (Why Join?)
  • Login
  • US Flag 
12:58AM EDT


 

Airport Tracker/Info


-or-


 

Live Flight TrackerFlight Track Log ✈ N508QS ✈ 09-Jun-2013 ✈ KMDW - KTEB

Flight Track Log - Related Links

Times and Time Zones

All times are in EDT time to prevent confusion due to time zone crossing. See the N508QS flight status page for this flight to view local times or setup timezone preferences in your user account.

Time Position Orientation Groundspeed Altitude Reporting Facility
EDT Latitude Longitude Course Direction KTS MPH feet Rate Location/Type
10:42AM 41.7981 -87.6839 85° East 201 231 3,300  Level Chicago Center
10:43AM 41.7947 -87.5933 93° East 232 267 5,000 2,820 Climbing Chicago Center
10:44AM 41.7992 -87.4689 87° East 269 310 9,200 3,780 Climbing Chicago Center
10:45AM 41.8022 -87.3625 88° East 283 326 12,800 2,760 Climbing Chicago Center
10:46AM 41.7853 -87.2442 101° East 312 359 15,000 2,340 Climbing Chicago Center
10:47AM 41.7514 -86.7950 85° East  Level FlightAware Approximate
10:47AM 41.7656 -87.1006 100° East 375 432 17,700  Level Chicago Center
10:48AM 41.7608 -86.9475 92° East 408 470 20,300 2,460 Climbing Chicago Center
10:49AM 41.7639 -86.7850 89° East 434 499 22,800 2,580 Climbing Chicago Center
10:50AM 41.7658 -86.6092 89° East 458 527 25,700 2,460 Climbing Chicago Center
10:51AM 41.7669 -86.4325 89° East 473 544 28,000 2,340 Climbing Chicago Center
10:52AM 41.7853 -86.2156 83° East 489 563 30,600 2,580 Climbing Chicago Center
10:53AM 41.8169 -86.0356 77° East 495 570 33,400 2,640 Climbing Chicago Center
10:54AM 41.8469 -85.8603 77° East 484 557 36,100 2,100 Climbing Chicago Center
10:55AM 41.8761 -85.6847 77° East 479 551 37,800 1,560 Climbing Chicago Center
10:56AM 41.9075 -85.5044 77° East 487 560 39,400 1,320 Climbing Chicago Center
10:57AM 41.9381 -85.3208 77° East 496 571 40,600 720 Climbing Chicago Center
10:58AM 41.9519 -85.1325 84° East 510 587 41,000 180 Climbing Chicago Center
10:59AM 41.9517 -84.9414 90° East 513 590 41,000  Level Chicago Center
11:00AM 41.9492 -84.7469 91° East 518 596 41,000  Level Chicago Center
11:01AM 41.9508 -84.5200 89° East 507 583 41,000  Level Chicago Center
11:02AM 41.9536 -84.3286 89° East 513 590 41,000  Level Chicago Center
11:03AM 41.9519 -84.2325 91° East 505 581 41,000  Level Cleveland Center
11:04AM 41.9558 -84.0428 88° East 500 575 41,000  Level Cleveland Center
11:05AM 41.9572 -83.8503 89° East 500 575 41,000  Level Cleveland Center
11:06AM 41.9561 -83.6603 90° East 500 575 41,000 240 Level Cleveland Center
11:07AM 41.9586 -83.4844 89° East 507 583 41,500 480 Climbing Cleveland Center
11:08AM 41.9614 -83.2892 89° East 519 597 42,000 540 Climbing Cleveland Center
11:09AM 41.9617 -83.0881 90° East 519 597 42,600 480 Climbing Cleveland Center
11:10AM 41.9636 -82.8953 89° East 519 597 43,000 180 Climbing Cleveland Center
11:11AM 41.9653 -82.7028 89° East 514 592 43,000  Level Cleveland Center
11:12AM 41.9625 -82.5100 91° East 514 592 43,000  Level Cleveland Center
11:13AM 41.9614 -82.3117 90° East 514 592 43,000  Level Cleveland Center
11:14AM 41.9644 -82.0994 89° East 514 592 43,000  Level Cleveland Center
11:15AM 41.9628 -81.9039 91° East 519 597 43,000  Level Cleveland Center
11:16AM 41.9628 -81.7086 90° East 519 597 43,000  Level Cleveland Center
11:17AM 41.9603 -81.5131 91° East 519 597 43,000  Level Cleveland Center
11:18AM 41.9575 -81.3175 91° East 519 597 43,000  Level Cleveland Center
11:19AM 41.9564 -81.1444 90° East 519 597 43,000  Level Cleveland Center
11:20AM 41.9489 -80.9489 93° East 514 592 43,000  Level Cleveland Center
11:21AM 41.9411 -80.7561 93° East 522 601 43,000  Level Cleveland Center
11:22AM 41.9286 -80.5608 95° East 517 595 43,000  Level Cleveland Center
11:23AM 41.9181 -80.3628 94° East 522 601 43,000  Level Cleveland Center
11:24AM 41.9028 -80.1508 95° East 522 601 43,000  Level Cleveland Center
11:25AM 41.8917 -79.9583 94° East 516 594 43,000  Level Cleveland Center
11:26AM 41.8800 -79.7606 94° East 521 600 43,000  Level Cleveland Center
11:27AM 41.8661 -79.5878 96° East 521 600 43,000  Level Cleveland Center
11:28AM 41.8558 -79.3928 94° East 521 600 43,000  Level Cleveland Center
11:29AM 41.8431 -79.1783 95° East 521 600 43,000  Level Cleveland Center
11:30AM 41.8258 -78.9808 97° East 521 600 43,000  Level Cleveland Center
11:31AM 41.8128 -78.8031 96° East 521 600 43,000  Level Cleveland Center
11:32AM 41.7992 -78.6056 95° East 521 600 43,000 -600 Level Cleveland Center
11:33AM 41.7831 -78.4111 96° East 526 605 41,900 -1,200 Descending Cleveland Center
11:34AM 41.7669 -78.2250 97° East 518 596 40,700 -1,980 Descending Cleveland Center
11:36AM 41.7342 -77.7981 96° East 505 581 35,700 -1,800 Descending New York Center
11:37AM 41.7183 -77.6072 96° East 505 581 35,000 -360 Descending New York Center
11:38AM 41.7019 -77.4194 97° East 505 581 35,000 -480 Level New York Center
11:39AM 41.6853 -77.2317 97° East 505 581 34,100 -960 Descending New York Center
11:40AM 41.6514 -77.0450 104° East 505 581 33,100 -1,020 Descending New York Center
11:41AM 41.6003 -76.8683 111° Southeast 510 587 32,100 -900 Descending New York Center
11:42AM 41.5617 -76.7261 110° East 510 587 31,300 -1,620 Descending New York Center
11:43AM 41.5106 -76.5361 110° East 510 587 28,900 -2,340 Descending New York Center
11:44AM 41.4647 -76.3631 109° East 499 574 26,700 -2,220 Descending New York Center
11:45AM 41.4186 -76.1906 110° East 494 568 24,500 -2,220 Descending New York Center
11:46AM 41.3697 -76.0289 112° Southeast 483 556 22,400 -2,100 Descending New York Center
11:47AM 41.3186 -75.8592 112° Southeast 461 531 20,300 -2,160 Descending New York Center
11:48AM 41.2750 -75.7069 111° Southeast 450 518 18,100 -2,580 Descending New York Center
11:49AM 41.2292 -75.5600 112° Southeast 434 499 15,200 -1,620 Descending New York Center
11:50AM 41.1844 -75.4244 114° Southeast 423 487 15,000 -480 Descending New York Center
11:51AM 41.1378 -75.2892 115° Southeast 410 472 14,300 -1,800 Descending New York Center
11:52AM 41.1006 -75.1711 113° Southeast 397 457 11,400 -2,940 Descending New York Center
11:53AM 41.0592 -75.0500 114° Southeast 342 394 8,400 -2,580 Descending New York Center
11:54AM 41.0250 -74.9544 115° Southeast 321 369 6,300 -1,320 Descending New York Center
11:55AM 40.9975 -74.8508 109° East 301 346 5,800 -840 Descending New York Center
11:56AM 41.0114 -74.7417 80° East 273 314 4,700 -960 Descending New York Center
11:57AM 41.0228 -74.6572 80° East 267 307 4,000 -360 Descending New York Center
11:58AM 41.0406 -74.5564 77° East 256 295 4,000 -360 Level New York Center
11:59AM 41.0436 -74.4575 88° East 256 295 3,300 -540 Descending New York Center
12:00PM 41.0339 -74.3664 98° East 258 297 3,000 -240 Descending New York Center
12:00PM 41.0333 -74.3167 91° East 257 296 3,000 -120 Level New York TRACON
12:01PM 41.0167 -74.2167 102° East 242 278 2,900 -540 Descending New York TRACON
12:02PM 41.0167 -74.1333 90° East 214 246 2,000 -480 Descending New York TRACON
12:03PM 41.0000 -74.0833 114° Southeast 178 205 2,000 -60 Level New York TRACON
12:04PM 40.9500 -74.0500 153° Southeast 168 193 1,900 -540 Descending New York TRACON
12:05PM 40.9000 -74.0500 180° South 164 189 1,000 -840 Descending New York TRACON
12:06PM 40.8667 -74.0500 180° South 140 161 300 1,440 Descending New York TRACON
12:09PM 40.7656 -74.0725 190° South 156 180 6,000 1,620 Climbing New York Center
12:10PM 40.7236 -74.0761 184° South 156 180 6,000  Level New York Center
12:11PM 40.6903 -74.0800 185° South 156 180 6,000  Level New York Center